Terminal Aerodrome Forecast
Issued by NWS Melbourne, FL

Home | Current Version | Previous Version | Text Only | Print | Product List | Glossary On
Versions: 1 2 3 4 5 6 7 8 9 10 11 12 13
000
FTUS42 KMLB 291100
TAFDAB
TAF
KDAB 291134Z 2912/3012 14003KT P6SM FEW030 FEW060
     FM291600 11008KT P6SM VCTS SCT040CB BKN150
     FM292000 12003KT P6SM SCT040
     FM300400 VRB02KT P6SM SKC=

USA.gov is the U.S. government's official web portal to all federal, state and local government web resources and services.